createdAt,value
2018-07-05T00:01:12.416Z,55.33
2018-07-05T00:03:51.982Z,58.73
2018-07-05T00:06:31.602Z,59.33
2018-07-05T00:09:11.206Z,57.70
2018-07-05T00:11:50.787Z,53.17
2018-07-05T00:14:30.361Z,61.10
2018-07-05T00:17:09.859Z,58.17
2018-07-05T00:19:49.402Z,63.03
2018-07-05T00:22:28.958Z,65.80
2018-07-05T00:25:08.636Z,61.43
2018-07-05T00:27:48.445Z,67.97
2018-07-05T00:30:27.971Z,58.03
2018-07-05T00:33:07.556Z,69.80
2018-07-05T00:35:47.104Z,73.83
2018-07-05T00:38:26.574Z,65.83
2018-07-05T00:41:06.135Z,84.20
2018-07-05T00:43:45.672Z,96.67
2018-07-05T00:46:25.235Z,84.63
2018-07-05T00:49:05.009Z,98.30
2018-07-05T00:51:45.483Z,111.60
2018-07-05T00:54:25.082Z,126.03
2018-07-05T00:57:04.640Z,127.73
2018-07-05T00:59:44.219Z,173.30
2018-07-05T01:02:23.781Z,188.33
2018-07-05T01:05:03.314Z,179.80
2018-07-05T01:07:42.866Z,220.40
2018-07-05T01:10:22.344Z,228.90
2018-07-05T01:13:02.061Z,166.73
2018-07-05T01:15:41.796Z,176.33
2018-07-05T01:18:21.373Z,176.40
2018-07-05T01:21:01.012Z,176.60
2018-07-05T01:23:40.540Z,198.10
2018-07-05T01:26:20.077Z,170.63
2018-07-05T01:28:59.696Z,132.50
2018-07-05T01:31:39.862Z,155.40
2018-07-05T01:34:19.460Z,119.47
2018-07-05T01:36:59.020Z,107.87
2018-07-05T01:39:38.467Z,96.13
2018-07-05T01:42:18.192Z,104.73
2018-07-05T01:44:57.727Z,95.63
2018-07-05T01:47:37.442Z,99.97
2018-07-05T01:50:16.900Z,118.67
2018-07-05T01:52:56.388Z,103.83
2018-07-05T01:55:35.971Z,107.90
2018-07-05T01:58:15.594Z,97.90
2018-07-05T02:00:55.162Z,117.50
2018-07-05T02:03:34.727Z,135.10
2018-07-05T02:06:14.308Z,134.30
2018-07-05T02:08:53.894Z,124.10
2018-07-05T02:11:33.564Z,114.93
2018-07-05T02:14:14.291Z,122.53
2018-07-05T02:16:53.987Z,126.10
2018-07-05T02:19:33.574Z,113.77
2018-07-05T02:22:13.130Z,133.63
2018-07-05T02:24:52.772Z,142.13
2018-07-05T02:27:32.321Z,159.67
2018-07-05T02:30:11.905Z,135.57
2018-07-05T02:32:51.441Z,151.10
2018-07-05T02:35:30.995Z,141.40
2018-07-05T02:38:15.902Z,151.50
2018-07-05T02:40:55.584Z,148.77
2018-07-05T02:43:35.116Z,157.23
2018-07-05T02:46:14.819Z,147.70
2018-07-05T02:48:54.533Z,158.07
2018-07-05T02:51:34.217Z,158.33
2018-07-05T02:54:13.766Z,138.83
2018-07-05T02:56:53.920Z,133.03
2018-07-05T02:59:33.546Z,121.50
2018-07-05T03:02:13.136Z,128.73
2018-07-05T03:04:52.691Z,114.83
2018-07-05T03:07:32.278Z,151.43
2018-07-05T03:10:11.992Z,133.20
2018-07-05T03:12:52.032Z,159.37
2018-07-05T03:15:31.719Z,153.90
2018-07-05T03:18:11.376Z,148.47
2018-07-05T03:20:51.250Z,148.83
2018-07-05T03:23:31.051Z,153.77
2018-07-05T03:26:12.258Z,186.97
2018-07-05T03:28:51.855Z,167.23
2018-07-05T03:31:31.408Z,167.30
2018-07-05T03:34:11.064Z,153.67
2018-07-05T03:36:50.643Z,171.37
2018-07-05T03:39:30.212Z,175.13
2018-07-05T03:42:09.890Z,203.40
2018-07-05T03:44:50.207Z,162.87
2018-07-05T03:47:29.745Z,179.97
2018-07-05T03:50:09.395Z,181.67
2018-07-05T03:52:49.922Z,171.43
2018-07-05T03:55:29.395Z,187.53
2018-07-05T03:58:09.039Z,181.17
2018-07-05T04:00:48.626Z,171.27
2018-07-05T04:03:28.171Z,167.40
2018-07-05T04:06:07.779Z,189.70
2018-07-05T04:08:47.350Z,178.17
2018-07-05T04:11:27.048Z,181.63
2018-07-05T04:14:06.754Z,189.33
2018-07-05T04:16:46.226Z,195.10
2018-07-05T04:19:25.832Z,183.97
2018-07-05T04:22:05.394Z,165.13
2018-07-05T04:24:44.940Z,162.63
2018-07-05T04:27:24.586Z,137.10
2018-07-05T04:30:04.069Z,161.50
2018-07-05T04:32:43.536Z,137.87
2018-07-05T04:35:23.059Z,165.50
2018-07-05T04:38:02.547Z,104.13
2018-07-05T04:40:42.053Z,112.27
2018-07-05T04:43:21.610Z,102.40
2018-07-05T04:46:01.184Z,84.23
2018-07-05T04:48:40.741Z,67.80
2018-07-05T04:51:20.330Z,55.83
2018-07-05T04:53:59.950Z,52.57
2018-07-05T04:56:39.543Z,58.67
2018-07-05T04:59:22.265Z,48.70
2018-07-05T05:02:01.802Z,41.07
2018-07-05T05:04:41.378Z,40.57
2018-07-05T05:07:20.914Z,38.00
2018-07-05T05:10:00.488Z,41.07
2018-07-05T05:12:40.037Z,41.20
2018-07-05T05:15:19.853Z,46.07
2018-07-05T05:17:59.396Z,38.53
2018-07-05T05:20:38.998Z,37.93
2018-07-05T05:23:18.516Z,36.07
2018-07-05T05:25:59.047Z,36.70
2018-07-05T05:28:38.619Z,36.33
2018-07-05T05:31:18.174Z,33.30
2018-07-05T05:33:57.643Z,29.60
2018-07-05T05:36:38.887Z,38.80
2018-07-05T05:39:18.532Z,30.00
2018-07-05T05:41:58.277Z,43.27
2018-07-05T05:44:37.830Z,28.60
2018-07-05T05:47:17.583Z,28.23
2018-07-05T05:49:57.155Z,31.33
2018-07-05T05:52:36.638Z,21.93
2018-07-05T05:55:16.234Z,21.50
2018-07-05T05:57:55.792Z,22.20
2018-07-05T06:00:35.364Z,21.60
2018-07-05T06:03:14.939Z,21.63
2018-07-05T06:05:54.480Z,19.83
2018-07-05T06:08:34.287Z,17.27
2018-07-05T06:11:14.025Z,19.93
2018-07-05T06:13:53.680Z,19.60
2018-07-05T06:16:33.204Z,22.90
2018-07-05T06:19:12.765Z,20.53
2018-07-05T06:21:52.300Z,19.63
2018-07-05T06:24:31.816Z,19.83
2018-07-05T06:27:11.259Z,27.37
2018-07-05T06:29:50.844Z,23.03
2018-07-05T06:32:30.541Z,31.33
2018-07-05T06:35:10.109Z,20.40
2018-07-05T06:37:49.657Z,20.37
2018-07-05T06:40:29.179Z,27.33
2018-07-05T06:43:09.357Z,29.00
2018-07-05T06:45:48.837Z,25.63
2018-07-05T06:48:28.303Z,21.40
2018-07-05T06:51:08.043Z,26.97
2018-07-05T06:53:47.800Z,17.43
2018-07-05T06:56:27.497Z,27.17
2018-07-05T06:59:07.135Z,18.83
2018-07-05T07:01:47.426Z,33.77
2018-07-05T07:04:27.070Z,18.33
2018-07-05T07:07:06.797Z,20.50
2018-07-05T07:09:46.601Z,20.90
2018-07-05T07:12:26.118Z,19.53
2018-07-05T07:15:05.736Z,28.33
2018-07-05T07:17:45.431Z,24.00
2018-07-05T07:20:25.106Z,27.80
2018-07-05T07:23:04.703Z,22.20
2018-07-05T07:25:44.322Z,25.27
2018-07-05T07:28:23.936Z,27.07
2018-07-05T07:31:03.474Z,21.53
2018-07-05T07:33:43.082Z,22.27
2018-07-05T07:36:22.503Z,21.70
2018-07-05T07:39:02.090Z,18.43
2018-07-05T07:41:41.642Z,14.60
2018-07-05T07:44:09.010Z,14.10
2018-07-05T07:46:36.355Z,13.10
2018-07-05T07:49:03.700Z,11.90
2018-07-05T07:51:31.054Z,11.00
2018-07-05T07:53:58.438Z,18.77
2018-07-05T07:56:25.763Z,13.73
2018-07-05T07:58:53.162Z,13.13
2018-07-05T08:01:20.516Z,11.30
2018-07-05T08:03:47.865Z,8.47
2018-07-05T08:06:15.238Z,8.57
2018-07-05T08:08:42.581Z,9.47
2018-07-05T08:11:09.937Z,7.50
2018-07-05T08:13:37.286Z,8.13
2018-07-05T08:16:04.608Z,7.57
2018-07-05T08:18:31.953Z,6.37
2018-07-05T08:20:59.316Z,6.80
2018-07-05T08:23:26.731Z,4.90
2018-07-05T08:25:54.092Z,6.63
2018-07-05T08:28:22.668Z,7.40
2018-07-05T08:30:50.019Z,4.93
2018-07-05T08:33:17.367Z,5.80
2018-07-05T08:35:44.729Z,6.80
2018-07-05T08:38:12.071Z,4.00
2018-07-05T08:40:39.414Z,10.90
2018-07-05T08:43:06.773Z,5.53
2018-07-05T08:45:34.126Z,5.80
2018-07-05T08:48:01.467Z,7.27
2018-07-05T08:50:28.864Z,5.40
2018-07-05T08:52:56.209Z,5.33
2018-07-05T08:55:23.548Z,5.40
2018-07-05T08:57:50.911Z,6.00
2018-07-05T09:00:18.245Z,6.27
2018-07-05T09:02:45.634Z,3.20
2018-07-05T09:05:13.039Z,5.00
2018-07-05T09:07:40.448Z,4.10
2018-07-05T09:10:07.808Z,5.43
2018-07-05T09:12:35.171Z,4.87
2018-07-05T09:15:02.562Z,5.67
2018-07-05T09:17:29.930Z,10.00
2018-07-05T09:19:57.655Z,4.70
2018-07-05T09:22:25.113Z,5.40
2018-07-05T09:24:52.453Z,5.53
2018-07-05T09:27:19.895Z,9.00
2018-07-05T09:29:47.241Z,10.33
2018-07-05T09:32:14.566Z,5.67
2018-07-05T09:34:42.111Z,14.37
2018-07-05T09:37:09.479Z,8.77
2018-07-05T09:39:36.809Z,5.80
2018-07-05T09:42:04.181Z,5.23
2018-07-05T09:44:31.539Z,5.90
2018-07-05T09:46:58.908Z,5.90
2018-07-05T09:49:26.267Z,8.53
2018-07-05T09:51:53.605Z,6.10
2018-07-05T09:54:20.947Z,5.20
2018-07-05T09:56:48.298Z,20.40
2018-07-05T09:59:15.624Z,5.80
2018-07-05T10:01:42.959Z,4.73
2018-07-05T10:04:10.322Z,16.97
2018-07-05T10:06:37.701Z,8.60
2018-07-05T10:09:05.533Z,4.10
2018-07-05T10:11:33.129Z,4.67
2018-07-05T10:14:00.560Z,8.00
2018-07-05T10:16:28.054Z,5.27
2018-07-05T10:18:55.407Z,6.37
2018-07-05T10:21:22.742Z,7.80
2018-07-05T10:23:50.125Z,10.63
2018-07-05T10:26:17.477Z,7.87
2018-07-05T10:28:57.088Z,5.37
2018-07-05T10:31:39.650Z,7.50
2018-07-05T10:34:06.975Z,9.73
2018-07-05T10:36:34.307Z,7.20
2018-07-05T10:39:01.673Z,13.20
2018-07-05T10:41:41.900Z,7.03
2018-07-05T10:44:21.497Z,31.33
2018-07-05T10:47:01.169Z,11.30
2018-07-05T10:49:40.741Z,9.60
2018-07-05T10:52:20.307Z,7.60
2018-07-05T10:54:59.811Z,8.33
2018-07-05T10:57:39.355Z,6.37
2018-07-05T11:00:18.921Z,11.10
2018-07-05T11:02:58.478Z,12.37
2018-07-05T11:05:38.031Z,10.37
2018-07-05T11:08:17.548Z,8.63
2018-07-05T11:10:57.138Z,6.07
2018-07-05T11:13:36.726Z,6.53
2018-07-05T11:16:16.374Z,14.97
2018-07-05T11:18:55.925Z,8.97
2018-07-05T11:21:35.386Z,5.97
2018-07-05T11:24:14.935Z,8.13
2018-07-05T11:26:54.447Z,6.93
2018-07-05T11:29:34.118Z,5.70
2018-07-05T11:32:13.627Z,4.13
2018-07-05T11:34:53.201Z,11.90
2018-07-05T11:37:32.765Z,6.87
2018-07-05T11:40:12.308Z,7.10
2018-07-05T11:42:51.928Z,7.13
2018-07-05T11:45:31.388Z,7.07
2018-07-05T11:48:10.954Z,7.70
2018-07-05T11:50:50.514Z,5.87
2018-07-05T11:53:30.147Z,7.63
2018-07-05T11:56:09.696Z,7.73
2018-07-05T11:58:49.270Z,9.70
2018-07-05T12:01:28.807Z,7.43
2018-07-05T12:04:08.393Z,6.97
2018-07-05T12:06:47.944Z,5.63
2018-07-05T12:09:27.508Z,6.40
2018-07-05T12:12:07.098Z,10.00
2018-07-05T12:14:46.656Z,7.47
2018-07-05T12:17:26.260Z,6.60
2018-07-05T12:20:05.846Z,5.53
2018-07-05T12:22:45.448Z,5.03
2018-07-05T12:25:25.317Z,9.27
2018-07-05T12:28:04.995Z,3.90
2018-07-05T12:30:44.637Z,8.40
2018-07-05T12:33:24.207Z,5.90
2018-07-05T12:36:03.774Z,5.20
2018-07-05T12:38:43.315Z,4.80
2018-07-05T12:41:22.882Z,5.07
2018-07-05T12:44:02.392Z,6.13
2018-07-05T12:46:41.994Z,3.17
2018-07-05T12:49:21.470Z,4.83
2018-07-05T12:52:01.101Z,6.47
2018-07-05T12:54:40.758Z,3.90
2018-07-05T12:57:20.424Z,5.50
2018-07-05T13:00:01.329Z,5.70
2018-07-05T13:02:41.009Z,3.90
2018-07-05T13:05:20.664Z,4.47
2018-07-05T13:08:01.197Z,3.50
2018-07-05T13:10:40.757Z,4.23
2018-07-05T13:13:20.315Z,4.17
2018-07-05T13:15:59.854Z,3.63
2018-07-05T13:18:39.351Z,4.90
2018-07-05T13:21:18.951Z,4.40
2018-07-05T13:23:58.524Z,6.57
2018-07-05T13:26:38.107Z,9.03
2018-07-05T13:29:17.653Z,4.70
2018-07-05T13:31:57.256Z,5.77
2018-07-05T13:34:36.843Z,5.07
2018-07-05T13:37:16.814Z,4.93
2018-07-05T13:39:56.547Z,3.33
2018-07-05T13:42:35.965Z,2.40
2018-07-05T13:45:15.526Z,2.60
2018-07-05T13:47:55.242Z,3.03
2018-07-05T13:50:35.038Z,2.70
2018-07-05T13:53:14.660Z,3.00
2018-07-05T13:55:54.236Z,3.17
2018-07-05T13:58:33.858Z,6.20
2018-07-05T14:01:13.423Z,4.50
2018-07-05T14:03:52.955Z,4.80
2018-07-05T14:06:32.512Z,2.20
2018-07-05T14:09:11.993Z,5.53
2018-07-05T14:11:51.760Z,4.20
2018-07-05T14:14:31.603Z,4.33
2018-07-05T14:17:11.230Z,7.27
2018-07-05T14:19:50.765Z,6.23
2018-07-05T14:22:30.316Z,2.67
2018-07-05T14:25:09.870Z,4.10
2018-07-05T14:27:49.317Z,4.27
2018-07-05T14:30:28.838Z,6.40
2018-07-05T14:33:08.438Z,3.60
2018-07-05T14:35:47.983Z,3.83
2018-07-05T14:38:27.572Z,2.40
2018-07-05T14:41:07.066Z,2.57
2018-07-05T14:43:46.700Z,3.87
2018-07-05T14:46:26.510Z,3.43
2018-07-05T14:49:06.227Z,3.10
2018-07-05T14:51:45.921Z,2.93
2018-07-05T14:54:26.640Z,2.10
2018-07-05T14:57:06.113Z,12.73
2018-07-05T14:59:45.615Z,3.13
2018-07-05T15:02:25.192Z,2.20
2018-07-05T15:05:05.471Z,2.27
2018-07-05T15:07:44.903Z,4.60
2018-07-05T15:10:24.448Z,4.07
2018-07-05T15:13:03.991Z,3.40
2018-07-05T15:15:43.564Z,3.37
2018-07-05T15:18:23.134Z,6.00
2018-07-05T15:21:02.617Z,6.40
2018-07-05T15:23:42.075Z,10.27
2018-07-05T15:26:21.662Z,3.43
2018-07-05T15:29:01.183Z,7.50
2018-07-05T15:31:40.753Z,7.83
2018-07-05T15:34:20.320Z,8.80
2018-07-05T15:36:59.800Z,10.43
2018-07-05T15:39:39.371Z,7.83
2018-07-05T15:42:18.924Z,6.33
2018-07-05T15:44:58.427Z,7.17
2018-07-05T15:47:37.916Z,3.30
2018-07-05T15:50:17.483Z,2.77
2018-07-05T15:52:57.022Z,4.10
2018-07-05T15:55:36.525Z,3.47
2018-07-05T15:58:16.104Z,7.73
2018-07-05T16:00:55.653Z,5.90
2018-07-05T16:03:35.192Z,4.20
2018-07-05T16:06:15.013Z,2.73
2018-07-05T16:08:54.714Z,2.70
2018-07-05T16:11:34.316Z,4.63
2018-07-05T16:14:13.908Z,4.63
2018-07-05T16:16:53.479Z,3.53
2018-07-05T16:19:33.166Z,16.27
2018-07-05T16:22:12.877Z,3.13
2018-07-05T16:24:52.529Z,2.73
2018-07-05T16:27:32.117Z,3.40
2018-07-05T16:30:11.714Z,5.13
2018-07-05T16:32:51.291Z,4.43
2018-07-05T16:35:30.990Z,3.73
2018-07-05T16:38:10.675Z,2.40
2018-07-05T16:40:50.252Z,1.70
2018-07-05T16:43:29.812Z,3.07
2018-07-05T16:46:09.364Z,2.53
2018-07-05T16:48:48.911Z,5.47
2018-07-05T16:51:28.482Z,2.50
2018-07-05T16:54:08.027Z,5.13
2018-07-05T16:56:47.595Z,2.00
2018-07-05T16:59:27.138Z,1.80
2018-07-05T17:02:06.797Z,2.03
2018-07-05T17:04:46.342Z,3.20
2018-07-05T17:07:25.817Z,2.23
2018-07-05T17:10:05.586Z,7.20
2018-07-05T17:12:45.208Z,3.43
2018-07-05T17:15:25.170Z,3.07
2018-07-05T17:18:04.963Z,12.90
2018-07-05T17:20:44.563Z,1.97
2018-07-05T17:23:24.119Z,8.63
2018-07-05T17:26:03.731Z,4.53
2018-07-05T17:28:43.283Z,1.77
2018-07-05T17:31:22.892Z,2.10
2018-07-05T17:34:02.510Z,1.13
2018-07-05T17:36:42.097Z,3.13
2018-07-05T17:39:21.678Z,1.30
2018-07-05T17:42:01.222Z,2.93
2018-07-05T17:44:40.905Z,9.57
2018-07-05T17:47:20.500Z,3.10
2018-07-05T17:50:00.113Z,2.27
2018-07-05T17:52:39.644Z,2.80
2018-07-05T17:55:19.241Z,2.53
2018-07-05T17:58:00.115Z,2.30
2018-07-05T18:00:39.821Z,1.77
2018-07-05T18:03:19.291Z,5.47
2018-07-05T18:05:58.899Z,1.53
2018-07-05T18:08:38.380Z,1.20
2018-07-05T18:11:18.812Z,2.97
2018-07-05T18:13:58.359Z,2.10
2018-07-05T18:16:38.687Z,1.53
2018-07-05T18:19:18.263Z,7.87
2018-07-05T18:21:57.788Z,3.37
2018-07-05T18:24:37.391Z,2.03
2018-07-05T18:27:16.917Z,1.57
2018-07-05T18:29:56.500Z,1.00
2018-07-05T18:32:35.973Z,1.60
2018-07-05T18:35:15.546Z,2.93
2018-07-05T18:37:55.121Z,1.80
2018-07-05T18:40:34.686Z,5.33
2018-07-05T18:43:14.230Z,1.07
2018-07-05T18:45:53.836Z,1.33
2018-07-05T18:48:33.401Z,2.23
2018-07-05T18:51:12.958Z,1.53
2018-07-05T18:53:52.444Z,1.37
2018-07-05T18:56:31.992Z,1.30
2018-07-05T18:59:11.524Z,0.90
2018-07-05T19:01:50.989Z,5.53
2018-07-05T19:04:30.788Z,1.30
2018-07-05T19:07:10.496Z,5.03
2018-07-05T19:09:50.004Z,2.63
2018-07-05T19:12:29.613Z,21.73
2018-07-05T19:15:09.923Z,2.67
2018-07-05T19:17:49.667Z,4.30
2018-07-05T19:20:29.173Z,4.87
2018-07-05T19:23:08.771Z,2.80
2018-07-05T19:25:48.397Z,1.50
2018-07-05T19:28:27.834Z,10.90
2018-07-05T19:31:07.308Z,2.57
2018-07-05T19:33:46.847Z,1.30
2018-07-05T19:36:27.112Z,32.87
2018-07-05T19:39:06.715Z,6.90
2018-07-05T19:41:46.427Z,4.27
2018-07-05T19:44:25.953Z,1.63
2018-07-05T19:47:05.532Z,1.70
2018-07-05T19:49:45.173Z,5.70
2018-07-05T19:52:24.864Z,2.23
2018-07-05T19:55:04.358Z,2.60
2018-07-05T19:57:43.976Z,5.80
2018-07-05T20:00:23.533Z,4.50
2018-07-05T20:03:03.158Z,1.33
2018-07-05T20:05:42.705Z,1.70
2018-07-05T20:08:22.210Z,1.23
2018-07-05T20:11:02.943Z,0.90
2018-07-05T20:13:42.551Z,1.37
2018-07-05T20:16:22.241Z,2.10
2018-07-05T20:19:01.892Z,1.10
2018-07-05T20:21:41.371Z,1.27
2018-07-05T20:24:20.940Z,1.13
2018-07-05T20:27:00.437Z,1.20
2018-07-05T20:29:39.922Z,1.23
2018-07-05T20:32:19.378Z,1.20
2018-07-05T20:34:59.011Z,4.47
2018-07-05T20:37:38.451Z,4.30
2018-07-05T20:40:17.934Z,1.13
2018-07-05T20:42:57.520Z,3.90
2018-07-05T20:45:37.022Z,0.87
2018-07-05T20:48:16.603Z,1.00
2018-07-05T20:50:56.168Z,1.00
2018-07-05T20:53:35.773Z,3.07
2018-07-05T20:56:15.260Z,2.70
2018-07-05T20:58:54.815Z,1.37
2018-07-05T21:01:34.339Z,1.37
2018-07-05T21:04:14.038Z,2.20
2018-07-05T21:06:53.818Z,0.90
2018-07-05T21:09:33.474Z,0.77
2018-07-05T21:12:12.984Z,1.60
2018-07-05T21:14:53.239Z,1.20
2018-07-05T21:17:32.844Z,1.07
2018-07-05T21:20:12.536Z,4.20
2018-07-05T21:22:52.921Z,2.00
2018-07-05T21:25:32.469Z,1.90
2018-07-05T21:28:11.957Z,2.30
2018-07-05T21:30:51.466Z,2.10
2018-07-05T21:33:31.058Z,1.63
2018-07-05T21:36:10.636Z,1.13
2018-07-05T21:38:50.202Z,2.80
2018-07-05T21:41:29.750Z,1.30
2018-07-05T21:44:09.289Z,2.80
2018-07-05T21:46:48.841Z,1.37
2018-07-05T21:49:28.775Z,1.33
2018-07-05T21:52:08.345Z,4.07
2018-07-05T21:54:47.907Z,1.90
2018-07-05T21:57:27.443Z,1.50
2018-07-05T22:00:07.239Z,1.20
2018-07-05T22:02:46.939Z,1.60
2018-07-05T22:05:26.463Z,3.93
2018-07-05T22:08:05.916Z,2.63
2018-07-05T22:10:45.474Z,3.60
2018-07-05T22:13:25.019Z,2.67
2018-07-05T22:16:04.625Z,3.73
2018-07-05T22:18:49.445Z,2.63
2018-07-05T22:21:29.028Z,3.50
2018-07-05T22:24:13.942Z,3.67
2018-07-05T22:26:53.421Z,3.50
2018-07-05T22:29:38.468Z,3.07
2018-07-05T22:32:18.200Z,2.93
2018-07-05T22:34:57.811Z,9.47
2018-07-05T22:37:37.376Z,5.73
2018-07-05T22:40:16.909Z,4.47
2018-07-05T22:42:56.488Z,4.90
2018-07-05T22:45:36.087Z,4.87
2018-07-05T22:48:15.626Z,5.23
2018-07-05T22:50:55.442Z,5.20
2018-07-05T22:53:35.187Z,11.60
2018-07-05T22:56:14.753Z,6.90
2018-07-05T22:58:54.338Z,5.17
2018-07-05T23:01:33.939Z,7.50
2018-07-05T23:04:13.680Z,10.43
2018-07-05T23:06:53.206Z,8.00
2018-07-05T23:09:32.817Z,6.73
2018-07-05T23:12:12.347Z,5.47
2018-07-05T23:14:51.984Z,8.03
2018-07-05T23:17:32.471Z,6.53
2018-07-05T23:20:11.945Z,10.40
2018-07-05T23:22:51.638Z,6.83
2018-07-05T23:25:31.308Z,7.53
2018-07-05T23:28:11.081Z,6.60
2018-07-05T23:30:50.764Z,9.00
2018-07-05T23:33:30.392Z,8.03
2018-07-05T23:36:09.941Z,7.80
2018-07-05T23:38:49.420Z,9.33
2018-07-05T23:41:29.732Z,12.20
2018-07-05T23:44:09.287Z,9.53
2018-07-05T23:46:48.915Z,11.40
2018-07-05T23:49:28.470Z,7.90
2018-07-05T23:52:08.043Z,9.70
2018-07-05T23:54:47.478Z,14.97
2018-07-05T23:57:27.034Z,7.17
